Time;durP1;ratioP1;P1;durP2;ratioP2;P2;SDS_P1;SDS_P2;PMS_P1;PMS_P2;Temp;Humidity;BMP_temperature;BMP_pressure;BME280_temperature;BME280_humidity;BME280_pressure;Samples;Min_cycle;Max_cycle;Signal;HPM_P1;HPM_P2
2023/06/08 00:00:09;;;;;;;16.52;7.03;;;12.00;99.90;;;;;;5104857;28;20036;-77
2023/06/08 00:02:35;;;;;;;13.27;6.90;;;12.00;99.90;;;;;;5108818;28;20043;-79
2023/06/08 00:05:02;;;;;;;15.27;7.65;;;12.00;99.90;;;;;;5119707;28;20481;-78
2023/06/08 00:07:29;;;;;;;15.35;6.57;;;12.10;99.90;;;;;;5133553;27;20425;-78
2023/06/08 00:09:56;;;;;;;22.27;7.63;;;11.90;99.90;;;;;;5100704;28;20040;-78
2023/06/08 00:12:22;;;;;;;22.77;7.32;;;12.00;99.90;;;;;;5076279;28;20071;-80
2023/06/08 00:14:47;;;;;;;22.58;7.38;;;12.00;99.90;;;;;;5098872;28;20062;-79
2023/06/08 00:17:13;;;;;;;20.98;7.53;;;12.00;99.90;;;;;;5116022;27;20366;-78
2023/06/08 00:19:39;;;;;;;19.15;7.25;;;12.10;99.90;;;;;;5109907;28;20040;-79
2023/06/08 00:22:07;;;;;;;20.98;6.97;;;12.10;99.90;;;;;;5129564;27;20075;-78
2023/06/08 00:24:36;;;;;;;17.33;6.20;;;12.00;99.90;;;;;;5097370;28;20081;-79
2023/06/08 00:27:03;;;;;;;19.00;6.97;;;12.00;99.90;;;;;;5093846;28;20069;-77
2023/06/08 00:29:32;;;;;;;21.40;6.50;;;12.00;99.90;;;;;;5104271;28;20481;-78
2023/06/08 00:31:58;;;;;;;16.10;7.03;;;12.00;99.90;;;;;;5083141;27;20334;-79
2023/06/08 00:34:27;;;;;;;16.38;6.68;;;12.00;99.90;;;;;;5105297;27;20067;-77
2023/06/08 00:36:53;;;;;;;16.73;6.25;;;11.90;99.90;;;;;;5069341;28;20047;-79
2023/06/08 00:39:19;;;;;;;13.15;6.32;;;11.80;99.90;;;;;;5123228;27;20039;-79
2023/06/08 00:41:45;;;;;;;19.30;6.93;;;11.90;99.90;;;;;;5106238;28;20058;-78
2023/06/08 00:44:11;;;;;;;20.33;8.13;;;11.80;99.90;;;;;;5070679;27;20042;-78
2023/06/08 00:46:37;;;;;;;19.77;7.32;;;11.80;99.90;;;;;;5101941;27;20043;-77
2023/06/08 00:49:05;;;;;;;21.23;8.10;;;11.80;99.90;;;;;;5088695;28;20393;-78
2023/06/08 00:51:34;;;;;;;20.67;8.60;;;11.90;99.90;;;;;;5099697;28;20131;-78
2023/06/08 00:54:01;;;;;;;16.10;8.13;;;11.80;99.90;;;;;;5107950;28;20058;-79
2023/06/08 00:56:27;;;;;;;20.13;8.30;;;11.80;99.90;;;;;;5085097;28;20044;-78
2023/06/08 00:59:00;;;;;;;14.57;8.00;;;11.80;99.90;;;;;;5119313;27;20036;-78
2023/06/08 01:01:35;;;;;;;17.58;7.88;;;11.80;99.90;;;;;;5106085;27;20508;-77
2023/06/08 01:04:08;;;;;;;19.13;8.05;;;11.80;99.90;;;;;;5094402;28;20048;-77
2023/06/08 01:06:45;;;;;;;17.67;7.97;;;11.90;99.90;;;;;;5124582;28;20047;-78
2023/06/08 01:09:33;;;;;;;24.30;8.65;;;11.80;99.90;;;;;;5128695;27;20207;-77
2023/06/08 01:12:05;;;;;;;20.42;8.88;;;11.80;99.90;;;;;;5114867;28;20058;-78
2023/06/08 01:15:05;;;;;;;21.73;8.90;;;11.80;99.90;;;;;;5114379;28;20036;-78
2023/06/08 01:17:40;;;;;;;25.17;9.25;;;11.90;99.90;;;;;;5115545;28;20032;-78
2023/06/08 01:20:32;;;;;;;19.88;8.88;;;11.80;99.90;;;;;;5101643;28;20043;-78
2023/06/08 01:23:37;;;;;;;24.65;8.65;;;11.80;99.90;;;;;;5123764;28;20044;-78
2023/06/08 01:26:04;;;;;;;16.45;7.65;;;11.80;99.90;;;;;;5112978;28;20154;-78
2023/06/08 01:28:30;;;;;;;16.60;7.25;;;11.80;99.90;;;;;;5107543;28;20032;-77
2023/06/08 01:31:01;;;;;;;21.42;7.93;;;11.80;99.90;;;;;;5110482;27;20396;-78
2023/06/08 01:33:29;;;;;;;18.00;8.60;;;12.30;99.90;;;;;;5089203;28;20130;-77
2023/06/08 01:36:13;;;;;;;;;;;11.80;99.90;;;;;;5109405;28;20048;-77
2023/06/08 01:39:03;;;;;;;22.63;9.00;;;11.80;99.90;;;;;;5100219;28;20016;-77
2023/06/08 01:41:39;;;;;;;24.67;7.97;;;11.80;99.90;;;;;;5107861;28;20043;-78
2023/06/08 01:44:06;;;;;;;19.08;7.80;;;11.90;99.90;;;;;;5088921;28;20043;-78
2023/06/08 01:46:32;;;;;;;18.50;7.80;;;11.90;99.90;;;;;;5086637;28;20103;-78
2023/06/08 01:49:01;;;;;;;18.17;7.80;;;11.80;99.90;;;;;;5086897;28;20076;-78
2023/06/08 01:51:36;;;;;;;18.00;8.23;;;12.10;99.90;;;;;;5085814;28;20052;-77
2023/06/08 01:54:04;;;;;;;23.00;9.10;;;11.70;99.90;;;;;;5088470;28;20050;-78
2023/06/08 01:56:35;;;;;;;20.02;9.07;;;11.70;99.90;;;;;;5082772;28;20051;-78
2023/06/08 01:59:03;;;;;;;21.17;8.25;;;11.80;99.90;;;;;;5086214;28;20069;-76
2023/06/08 02:01:29;;;;;;;31.15;8.52;;;11.80;99.90;;;;;;5084457;28;20402;-78
2023/06/08 02:03:55;;;;;;;20.35;8.32;;;11.80;99.90;;;;;;5091926;28;20035;-78
2023/06/08 02:06:20;;;;;;;20.08;7.53;;;11.80;99.90;;;;;;5118813;28;20032;-79
2023/06/08 02:08:46;;;;;;;19.88;8.80;;;11.80;99.90;;;;;;5077718;28;20050;-78
2023/06/08 02:11:12;;;;;;;22.88;9.55;;;11.80;99.90;;;;;;5119365;27;20067;-78
2023/06/08 02:13:42;;;;;;;18.83;10.40;;;11.80;99.90;;;;;;5115502;28;20157;-79
2023/06/08 02:16:08;;;;;;;22.25;10.18;;;11.90;99.90;;;;;;5118907;27;20040;-79
2023/06/08 02:18:35;;;;;;;22.38;10.27;;;11.80;99.90;;;;;;5112415;28;20076;-79
2023/06/08 02:21:04;;;;;;;28.10;11.05;;;11.80;99.90;;;;;;5122855;27;20079;-77
2023/06/08 02:23:30;;;;;;;26.27;11.18;;;11.70;99.90;;;;;;5093469;28;20045;-77
2023/06/08 02:25:55;;;;;;;22.30;11.07;;;11.90;99.90;;;;;;5122532;27;20473;-79
2023/06/08 02:28:21;;;;;;;23.63;10.45;;;11.90;99.90;;;;;;5095957;28;20147;-77
2023/06/08 02:30:47;;;;;;;22.10;10.10;;;12.00;99.90;;;;;;5113475;28;20091;-78
2023/06/08 02:33:16;;;;;;;23.92;9.32;;;12.00;99.90;;;;;;5092779;28;20058;-78
2023/06/08 02:35:42;;;;;;;20.70;8.90;;;11.90;99.90;;;;;;5122161;27;20030;-79
2023/06/08 02:38:08;;;;;;;23.27;8.95;;;11.90;99.90;;;;;;5108057;28;20043;-78
2023/06/08 02:40:33;;;;;;;21.80;9.10;;;11.90;99.90;;;;;;5126625;28;20075;-78
2023/06/08 02:42:59;;;;;;;18.00;8.07;;;11.90;99.90;;;;;;5135117;27;20456;-78
2023/06/08 02:45:26;;;;;;;23.13;8.95;;;11.90;99.90;;;;;;5106382;27;20044;-77
2023/06/08 02:47:52;;;;;;;21.30;8.82;;;11.90;99.90;;;;;;5112725;28;20044;-78
2023/06/08 02:50:18;;;;;;;24.45;8.65;;;11.90;99.90;;;;;;5126126;27;20070;-77
2023/06/08 02:52:43;;;;;;;22.92;8.73;;;11.90;99.90;;;;;;5106196;28;20040;-78
2023/06/08 02:55:09;;;;;;;17.58;8.35;;;11.90;99.90;;;;;;5102748;28;20036;-79
2023/06/08 02:57:36;;;;;;;19.92;9.43;;;11.90;99.90;;;;;;5099397;28;20032;-78
2023/06/08 03:00:07;;;;;;;18.73;9.48;;;11.90;99.90;;;;;;5127268;27;20127;-78
2023/06/08 03:02:33;;;;;;;21.88;9.82;;;11.90;99.90;;;;;;5116810;28;20054;-77
2023/06/08 03:05:03;;;;;;;20.17;10.55;;;11.90;99.90;;;;;;5084101;28;20039;-79
2023/06/08 03:07:36;;;;;;;22.30;11.50;;;11.90;99.90;;;;;;5117452;27;20055;-78
2023/06/08 03:10:03;;;;;;;22.27;10.35;;;12.00;99.90;;;;;;5116885;27;20040;-78
2023/06/08 03:12:29;;;;;;;28.13;11.55;;;12.00;99.90;;;;;;5107633;28;20072;-77
2023/06/08 03:14:55;;;;;;;21.60;10.73;;;12.00;99.90;;;;;;5097349;28;20043;-78
2023/06/08 03:17:24;;;;;;;28.38;11.10;;;12.00;99.90;;;;;;5094085;28;20123;-77
2023/06/08 03:19:50;;;;;;;19.60;10.75;;;12.00;99.90;;;;;;5101123;28;20111;-78
2023/06/08 03:22:19;;;;;;;20.85;9.63;;;12.00;99.90;;;;;;5101575;28;20047;-77
2023/06/08 03:24:48;;;;;;;20.33;9.15;;;12.00;99.90;;;;;;5097894;27;20047;-77
2023/06/08 03:27:14;;;;;;;22.23;8.40;;;12.00;99.90;;;;;;5109470;27;20036;-78
2023/06/08 03:29:40;;;;;;;23.48;8.55;;;12.00;99.90;;;;;;5077764;27;20036;-79
2023/06/08 03:32:06;;;;;;;23.30;9.15;;;12.00;99.90;;;;;;5103539;28;20504;-77
2023/06/08 03:34:32;;;;;;;19.42;8.18;;;12.00;99.90;;;;;;5131575;27;20477;-78
2023/06/08 03:36:58;;;;;;;16.75;7.60;;;12.00;99.90;;;;;;5103402;28;20068;-78
2023/06/08 03:39:23;;;;;;;14.90;6.43;;;12.30;99.90;;;;;;5112917;28;20039;-78
2023/06/08 03:41:50;;;;;;;19.17;6.90;;;12.20;99.90;;;;;;5111387;27;20044;-77
2023/06/08 03:44:15;;;;;;;15.82;6.32;;;12.10;99.90;;;;;;5108714;28;20030;-79
2023/06/08 03:46:42;;;;;;;19.35;7.13;;;12.10;99.90;;;;;;5108520;28;20039;-79
2023/06/08 03:49:07;;;;;;;20.30;7.07;;;12.10;99.90;;;;;;5089689;28;20101;-78
2023/06/08 03:51:33;;;;;;;22.05;7.97;;;12.10;99.90;;;;;;5101758;27;20510;-77
2023/06/08 03:53:59;;;;;;;16.55;7.07;;;12.10;99.90;;;;;;5100865;28;20390;-77
2023/06/08 03:56:25;;;;;;;21.75;7.28;;;11.90;99.90;;;;;;5089599;27;20195;-78
2023/06/08 03:58:51;;;;;;;18.30;7.05;;;12.10;99.90;;;;;;5105068;27;20043;-78
2023/06/08 04:01:17;;;;;;;17.42;6.38;;;12.10;99.90;;;;;;5076610;28;20050;-77
2023/06/08 04:03:43;;;;;;;21.67;7.78;;;12.10;99.90;;;;;;5107460;28;20492;-78
2023/06/08 04:06:12;;;;;;;17.63;8.18;;;12.10;99.90;;;;;;5107099;28;20104;-79
2023/06/08 04:08:41;;;;;;;18.02;7.57;;;12.10;99.90;;;;;;5109293;27;20032;-79
2023/06/08 04:11:08;;;;;;;18.30;7.63;;;12.10;99.90;;;;;;5109937;28;20085;-79
2023/06/08 04:13:36;;;;;;;19.00;8.13;;;12.10;99.90;;;;;;5099063;27;20168;-77
2023/06/08 04:16:07;;;;;;;22.40;6.55;;;12.10;99.90;;;;;;5082741;28;20048;-78
2023/06/08 04:18:32;;;;;;;17.23;6.38;;;12.20;99.90;;;;;;5106760;28;20093;-78
2023/06/08 04:21:01;;;;;;;18.17;6.00;;;12.10;99.90;;;;;;5120494;28;20051;-78
2023/06/08 04:23:27;;;;;;;18.30;6.53;;;12.20;99.90;;;;;;5105709;28;20516;-77
2023/06/08 04:25:53;;;;;;;23.67;7.50;;;12.20;99.90;;;;;;5109378;28;20494;-78
2023/06/08 04:28:20;;;;;;;21.42;7.28;;;12.20;99.90;;;;;;5105255;28;20096;-78
2023/06/08 04:30:46;;;;;;;14.98;6.75;;;12.20;99.90;;;;;;5099385;28;20070;-77
2023/06/08 04:33:12;;;;;;;23.15;7.15;;;12.30;99.90;;;;;;5087280;28;20036;-78
2023/06/08 04:35:38;;;;;;;18.38;6.80;;;12.30;99.90;;;;;;5108768;27;20056;-78
2023/06/08 04:38:03;;;;;;;17.17;7.47;;;12.80;99.90;;;;;;5102451;28;20394;-79
2023/06/08 04:40:33;;;;;;;17.23;7.10;;;12.40;99.90;;;;;;5101736;28;20058;-77
2023/06/08 04:42:59;;;;;;;22.65;7.25;;;12.40;99.90;;;;;;5093411;28;20035;-78
2023/06/08 04:45:25;;;;;;;26.08;7.10;;;12.40;99.90;;;;;;5113036;27;21316;-79
2023/06/08 04:47:51;;;;;;;17.55;7.20;;;12.40;99.90;;;;;;5105353;27;20043;-78
2023/06/08 04:50:17;;;;;;;18.42;7.53;;;12.40;99.90;;;;;;5114541;28;20477;-77
2023/06/08 04:52:45;;;;;;;21.02;6.80;;;12.40;99.90;;;;;;5113766;27;20044;-78
2023/06/08 04:55:16;;;;;;;13.38;6.70;;;12.40;99.90;;;;;;5102551;28;20109;-78
2023/06/08 04:57:44;;;;;;;20.88;7.20;;;12.40;99.90;;;;;;5093466;28;20051;-78
2023/06/08 05:00:10;;;;;;;;;;;12.50;99.90;;;;;;5104646;28;20047;-77
2023/06/08 05:02:37;;;;;;;24.50;6.88;;;12.50;99.90;;;;;;5106593;28;19919;-78
2023/06/08 05:05:03;;;;;;;21.33;7.35;;;12.50;99.90;;;;;;5113559;27;20031;-78
2023/06/08 05:07:29;;;;;;;25.73;7.07;;;12.60;99.90;;;;;;5106358;28;20486;-78
2023/06/08 05:09:56;;;;;;;22.50;6.75;;;12.60;99.90;;;;;;5113743;27;20122;-78
2023/06/08 05:12:22;;;;;;;18.60;6.80;;;12.60;99.90;;;;;;5088707;28;20036;-78
2023/06/08 05:14:48;;;;;;;18.63;6.32;;;12.80;99.90;;;;;;5090674;28;20036;-77
2023/06/08 05:17:16;;;;;;;24.60;6.80;;;12.70;99.90;;;;;;5092761;28;20060;-77
2023/06/08 05:19:42;;;;;;;21.92;7.07;;;12.80;99.90;;;;;;5113929;28;20040;-77
2023/06/08 05:22:07;;;;;;;20.77;6.75;;;12.80;99.90;;;;;;5109561;28;20217;-78
2023/06/08 05:24:33;;;;;;;16.27;6.63;;;12.80;99.90;;;;;;5103465;28;20050;-78
2023/06/08 05:26:59;;;;;;;20.38;7.20;;;12.80;99.90;;;;;;5108542;28;20062;-79
2023/06/08 05:29:24;;;;;;;22.02;7.30;;;12.90;99.90;;;;;;5114487;28;20048;-77
2023/06/08 05:31:50;;;;;;;24.30;6.88;;;12.80;99.90;;;;;;5092639;28;20047;-79
2023/06/08 05:34:16;;;;;;;23.58;7.05;;;12.90;99.90;;;;;;5106750;28;20043;-78
2023/06/08 05:36:41;;;;;;;21.77;6.63;;;13.50;99.90;;;;;;5074510;27;20064;-79
2023/06/08 05:39:07;;;;;;;20.33;7.85;;;12.90;99.90;;;;;;5095047;28;20036;-77
2023/06/08 05:41:33;;;;;;;18.25;6.75;;;12.90;99.90;;;;;;5108719;27;20388;-79
2023/06/08 05:43:59;;;;;;;19.45;6.35;;;13.00;99.90;;;;;;5119117;27;20488;-79
2023/06/08 05:46:25;;;;;;;18.75;6.60;;;13.00;99.90;;;;;;5095526;28;20051;-77
2023/06/08 05:48:50;;;;;;;22.90;7.05;;;13.00;99.90;;;;;;5093278;28;20058;-77
2023/06/08 05:51:16;;;;;;;18.13;6.93;;;13.10;99.90;;;;;;5114503;27;20062;-79
2023/06/08 05:53:42;;;;;;;23.48;6.90;;;13.10;99.90;;;;;;5102984;27;20182;-78
2023/06/08 05:56:07;;;;;;;23.67;6.57;;;13.50;99.90;;;;;;5100911;27;20043;-78
2023/06/08 05:58:33;;;;;;;22.70;6.38;;;13.30;99.90;;;;;;5109758;27;20032;-78
2023/06/08 06:00:59;;;;;;;17.48;6.78;;;13.90;99.90;;;;;;5097906;28;20491;-79
2023/06/08 06:03:25;;;;;;;22.40;6.45;;;13.70;99.90;;;;;;5116499;27;20040;-78
2023/06/08 06:05:50;;;;;;;15.13;5.93;;;13.50;99.90;;;;;;5102044;28;20035;-80
2023/06/08 06:08:16;;;;;;;12.68;6.00;;;13.50;99.90;;;;;;5092013;28;20181;-78
2023/06/08 06:10:42;;;;;;;18.45;6.60;;;13.60;99.90;;;;;;5109459;28;20157;-78
2023/06/08 06:13:07;;;;;;;23.65;7.22;;;13.70;99.90;;;;;;5123684;27;20093;-78
2023/06/08 06:15:33;;;;;;;21.33;5.82;;;13.90;99.90;;;;;;5107724;27;20056;-79
2023/06/08 06:17:59;;;;;;;19.23;6.60;;;14.10;99.90;;;;;;5103116;27;20032;-78
2023/06/08 06:20:29;;;;;;;18.95;6.50;;;14.10;99.90;;;;;;5115486;28;20099;-77
2023/06/08 06:22:58;;;;;;;20.20;5.90;;;14.10;99.90;;;;;;5114950;28;20061;-79
2023/06/08 06:25:24;;;;;;;23.10;6.60;;;14.10;99.90;;;;;;5121594;27;20414;-78
2023/06/08 06:27:50;;;;;;;16.17;6.20;;;14.20;99.90;;;;;;5106279;28;20110;-78
2023/06/08 06:30:16;;;;;;;20.25;6.95;;;14.40;99.90;;;;;;5115073;27;20036;-78
2023/06/08 06:32:41;;;;;;;16.17;6.55;;;14.70;99.90;;;;;;5108875;28;20046;-78
2023/06/08 06:35:10;;;;;;;15.20;6.00;;;14.50;99.90;;;;;;5116187;28;20032;-78
2023/06/08 06:37:35;;;;;;;15.30;5.95;;;14.50;99.90;;;;;;5096840;28;20445;-79
2023/06/08 06:40:06;;;;;;;14.93;6.30;;;14.50;99.90;;;;;;5108648;28;20047;-78
2023/06/08 06:42:33;;;;;;;12.15;5.82;;;14.40;99.90;;;;;;5102728;28;20051;-79
2023/06/08 06:44:58;;;;;;;19.08;5.60;;;14.80;99.90;;;;;;5101175;28;20067;-78
2023/06/08 06:47:25;;;;;;;16.35;4.90;;;14.40;99.90;;;;;;5108244;27;20060;-78
2023/06/08 06:49:50;;;;;;;20.17;6.18;;;14.50;99.90;;;;;;5113976;28;20103;-79
2023/06/08 06:52:17;;;;;;;22.65;5.53;;;14.70;99.90;;;;;;5119541;27;20043;-79
2023/06/08 06:54:43;;;;;;;14.75;5.50;;;14.60;99.90;;;;;;5108952;28;20397;-78
2023/06/08 06:57:08;;;;;;;18.83;5.70;;;14.80;99.90;;;;;;5110801;28;20027;-79
2023/06/08 06:59:34;;;;;;;12.88;5.05;;;14.90;99.90;;;;;;5112813;28;20561;-80
2023/06/08 07:02:00;;;;;;;20.58;5.97;;;15.10;99.90;;;;;;5123145;28;20100;-79
2023/06/08 07:04:26;;;;;;;13.55;4.60;;;15.10;99.90;;;;;;5121864;27;20125;-78
2023/06/08 07:06:52;;;;;;;21.08;5.30;;;15.20;99.90;;;;;;5124694;28;20048;-80
2023/06/08 07:09:21;;;;;;;19.63;4.55;;;15.40;99.90;;;;;;5123633;28;20048;-79
2023/06/08 07:11:48;;;;;;;14.20;5.13;;;15.30;99.90;;;;;;5105082;28;20055;-81
2023/06/08 07:14:14;;;;;;;24.10;5.53;;;15.30;99.90;;;;;;5116714;28;20102;-79
2023/06/08 07:16:40;;;;;;;19.05;5.40;;;15.30;99.90;;;;;;5117103;28;20036;-79
2023/06/08 07:19:06;;;;;;;17.10;4.78;;;15.30;99.90;;;;;;5125175;27;20161;-80
2023/06/08 07:21:32;;;;;;;17.27;5.00;;;16.10;99.90;;;;;;5120424;27;20040;-80
2023/06/08 07:23:57;;;;;;;14.18;4.93;;;15.50;99.90;;;;;;5111756;28;20046;-81
2023/06/08 07:26:24;;;;;;;18.02;5.25;;;15.80;99.90;;;;;;5131202;28;20043;-80
2023/06/08 07:28:54;;;;;;;14.90;4.75;;;15.70;99.90;;;;;;5115857;28;20047;-79
2023/06/08 07:31:20;;;;;;;14.77;5.38;;;15.70;99.90;;;;;;5099671;28;20036;-80
2023/06/08 07:33:46;;;;;;;18.50;5.00;;;15.70;99.90;;;;;;5092494;28;20099;-79
2023/06/08 07:36:12;;;;;;;20.13;5.35;;;15.70;99.90;;;;;;5125426;28;20019;-80
2023/06/08 07:38:38;;;;;;;22.48;5.85;;;15.80;99.90;;;;;;5130150;27;20032;-81
2023/06/08 07:41:04;;;;;;;17.98;5.03;;;15.90;99.90;;;;;;5129500;27;20134;-79
2023/06/08 07:43:29;;;;;;;10.68;4.40;;;16.10;99.90;;;;;;5102261;28;20039;-79
2023/06/08 07:45:55;;;;;;;17.00;5.07;;;16.20;99.90;;;;;;5106981;28;20069;-80
2023/06/08 07:48:21;;;;;;;16.05;5.28;;;16.10;99.90;;;;;;5120702;28;20040;-80
2023/06/08 07:50:46;;;;;;;15.10;5.10;;;16.10;99.90;;;;;;5105239;28;20050;-80
2023/06/08 07:53:13;;;;;;;17.35;5.30;;;16.10;99.90;;;;;;5117202;28;20044;-80
2023/06/08 07:55:39;;;;;;;13.67;4.77;;;16.20;99.90;;;;;;5120946;28;20039;-81
2023/06/08 07:58:05;;;;;;;16.60;4.85;;;16.40;99.90;;;;;;5096214;28;20124;-80
2023/06/08 08:00:31;;;;;;;18.05;5.70;;;16.40;99.90;;;;;;5123236;27;20043;-81
2023/06/08 08:02:57;;;;;;;21.13;5.57;;;16.50;99.90;;;;;;5105145;28;20052;-79
2023/06/08 08:05:23;;;;;;;19.38;5.32;;;16.50;99.90;;;;;;5108459;28;20063;-80
2023/06/08 08:07:48;;;;;;;14.30;4.68;;;16.70;99.90;;;;;;5097862;28;20047;-80
2023/06/08 08:10:14;;;;;;;20.60;5.03;;;16.80;99.90;;;;;;5106955;28;20136;-79
2023/06/08 08:12:42;;;;;;;13.20;4.93;;;16.70;99.90;;;;;;5117695;28;20031;-79
2023/06/08 08:15:08;;;;;;;25.73;5.97;;;16.80;99.90;;;;;;5097323;28;20118;-76
2023/06/08 08:17:34;;;;;;;17.27;5.10;;;16.90;99.90;;;;;;5097987;28;20539;-76
2023/06/08 08:19:59;;;;;;;18.67;5.22;;;16.80;99.90;;;;;;5107761;28;20044;-76
2023/06/08 08:22:25;;;;;;;14.20;5.55;;;16.80;99.90;;;;;;5098116;28;20097;-77
2023/06/08 08:24:50;;;;;;;16.52;5.30;;;16.80;99.90;;;;;;5068781;28;20032;-78
2023/06/08 08:27:17;;;;;;;15.73;5.13;;;16.90;99.90;;;;;;5098231;28;20119;-78
2023/06/08 08:29:43;;;;;;;13.10;4.82;;;16.90;99.90;;;;;;5109660;27;20048;-76
2023/06/08 08:32:09;;;;;;;20.45;4.72;;;17.10;99.90;;;;;;5105282;28;20051;-78
2023/06/08 08:34:35;;;;;;;14.40;4.97;;;17.10;99.90;;;;;;5109623;27;20048;-79
2023/06/08 08:37:00;;;;;;;18.98;4.80;;;17.50;99.90;;;;;;5087179;28;20044;-77
2023/06/08 08:39:26;;;;;;;17.58;5.47;;;17.20;99.90;;;;;;5115288;28;20042;-77
2023/06/08 08:41:55;;;;;;;15.43;4.38;;;17.30;99.90;;;;;;5098805;28;20123;-79
2023/06/08 08:44:24;;;;;;;14.63;4.30;;;17.40;99.90;;;;;;5104796;28;20443;-77
2023/06/08 08:46:49;;;;;;;14.52;4.85;;;17.30;99.90;;;;;;5115460;27;20032;-76
2023/06/08 08:49:16;;;;;;;12.10;4.43;;;17.30;99.90;;;;;;5127621;27;20443;-77
2023/06/08 08:51:53;;;;;;;14.90;4.95;;;17.20;99.90;;;;;;5109823;28;20092;-78
2023/06/08 08:54:31;;;;;;;15.18;5.15;;;17.50;99.90;;;;;;5116187;27;20052;-77
2023/06/08 08:56:57;;;;;;;15.18;4.90;;;17.70;99.90;;;;;;5118613;28;20495;-79
2023/06/08 08:59:23;;;;;;;18.85;4.30;;;17.70;99.90;;;;;;5117126;28;20486;-79
2023/06/08 09:01:49;;;;;;;18.58;5.22;;;17.50;99.90;;;;;;5089530;28;20065;-77
2023/06/08 09:04:14;;;;;;;19.75;4.72;;;17.60;99.90;;;;;;5114074;28;20040;-79
2023/06/08 09:06:48;;;;;;;12.18;4.18;;;17.60;99.90;;;;;;5092607;28;20059;-78
2023/06/08 09:09:14;;;;;;;17.30;4.60;;;17.80;99.90;;;;;;5121801;28;20048;-79
2023/06/08 09:12:01;;;;;;;19.85;4.82;;;18.10;99.90;;;;;;5120102;28;20040;-78
2023/06/08 09:14:28;;;;;;;16.63;4.90;;;18.20;99.90;;;;;;5116355;28;20408;-78
2023/06/08 09:16:55;;;;;;;14.73;5.13;;;18.20;99.90;;;;;;5094166;28;20036;-77
2023/06/08 09:19:22;;;;;;;14.00;3.88;;;18.00;99.90;;;;;;5100031;28;20031;-78
2023/06/08 09:21:48;;;;;;;12.75;5.13;;;18.20;99.90;;;;;;5081525;28;20487;-78
2023/06/08 09:24:16;;;;;;;15.93;5.45;;;18.20;99.90;;;;;;5114539;28;20142;-78
2023/06/08 09:26:56;;;;;;;13.38;4.50;;;18.30;99.90;;;;;;5115549;28;20114;-78
2023/06/08 09:29:40;;;;;;;14.07;4.82;;;18.50;99.90;;;;;;5107826;28;20039;-79
2023/06/08 09:32:12;;;;;;;9.82;4.18;;;18.40;99.90;;;;;;5099176;28;20397;-80
2023/06/08 09:35:04;;;;;;;16.38;4.93;;;18.70;99.90;;;;;;5115874;28;20048;-79
2023/06/08 09:37:31;;;;;;;11.20;4.38;;;18.60;99.90;;;;;;5112967;28;20066;-80
2023/06/08 09:39:58;;;;;;;12.68;4.68;;;18.30;99.90;;;;;;5081373;28;20052;-80
2023/06/08 09:42:43;;;;;;;13.73;4.93;;;18.50;99.90;;;;;;5080387;28;20055;-79
2023/06/08 09:45:16;;;;;;;16.02;5.38;;;18.50;99.90;;;;;;5080355;28;20043;-79
2023/06/08 09:47:42;;;;;;;11.63;4.55;;;18.30;99.90;;;;;;5101434;28;20036;-79
2023/06/08 09:50:09;;;;;;;12.13;4.78;;;19.10;99.90;;;;;;5130424;28;20382;-79
2023/06/08 09:52:41;;;;;;;16.90;4.28;;;18.30;99.90;;;;;;5105383;28;20044;-80
2023/06/08 09:55:08;;;;;;;14.38;4.45;;;18.30;99.90;;;;;;5111436;28;20501;-78
2023/06/08 09:57:36;;;;;;;13.40;4.88;;;18.50;99.90;;;;;;5077207;28;20481;-79
2023/06/08 10:00:20;;;;;;;12.57;5.00;;;18.70;99.90;;;;;;5095285;28;20043;-79
2023/06/08 10:03:06;;;;;;;11.90;4.10;;;18.90;99.90;;;;;;5088242;28;20039;-80
2023/06/08 10:05:35;;;;;;;13.07;4.60;;;19.10;99.90;;;;;;5064838;28;20102;-79
2023/06/08 10:08:02;;;;;;;15.52;4.60;;;19.00;99.90;;;;;;5112784;28;20050;-81
2023/06/08 10:10:38;;;;;;;17.75;4.82;;;18.90;99.90;;;;;;5114486;28;20043;-77
2023/06/08 10:13:05;;;;;;;10.95;4.00;;;19.00;99.90;;;;;;5092395;28;20167;-76
2023/06/08 10:15:32;;;;;;;13.02;4.60;;;19.10;99.90;;;;;;5087136;28;20040;-79
2023/06/08 10:17:59;;;;;;;14.45;4.30;;;19.40;99.90;;;;;;5099697;28;20031;-79
2023/06/08 10:20:28;;;;;;;16.90;4.85;;;19.50;99.90;;;;;;5077144;28;20040;-77
2023/06/08 10:22:57;;;;;;;13.77;4.47;;;19.40;99.90;;;;;;5084737;28;20049;-78
2023/06/08 10:25:27;;;;;;;14.48;4.10;;;19.30;99.90;;;;;;5101012;28;20044;-78
2023/06/08 10:27:53;;;;;;;15.63;4.30;;;19.40;99.90;;;;;;5082363;28;20047;-78
2023/06/08 10:30:30;;;;;;;10.23;3.90;;;19.60;99.90;;;;;;5081116;28;20049;-78
2023/06/08 10:33:09;;;;;;;9.02;3.85;;;19.50;99.90;;;;;;5096841;28;20036;-77
2023/06/08 10:35:42;;;;;;;13.85;4.60;;;19.60;99.90;;;;;;5097265;28;20047;-77
2023/06/08 10:38:16;;;;;;;13.63;3.92;;;19.80;99.90;;;;;;5114755;28;20528;-78
2023/06/08 10:40:49;;;;;;;12.00;4.03;;;19.80;99.90;;;;;;5117957;28;20342;-77
2023/06/08 10:43:26;;;;;;;11.68;4.30;;;19.90;99.90;;;;;;5085514;28;20079;-77
2023/06/08 10:45:51;;;;;;;10.90;3.88;;;20.00;99.90;;;;;;5088213;28;20056;-78
2023/06/08 10:48:19;;;;;;;10.70;3.75;;;20.10;99.90;;;;;;5072306;28;20101;-78
2023/06/08 10:50:46;;;;;;;15.70;4.18;;;20.20;99.90;;;;;;5076109;28;20088;-77
2023/06/08 10:53:15;;;;;;;10.03;3.73;;;20.20;99.90;;;;;;5077799;28;20055;-78
2023/06/08 10:55:43;;;;;;;12.85;4.47;;;20.20;99.90;;;;;;5044160;28;20325;-77
2023/06/08 10:58:18;;;;;;;15.50;4.43;;;20.40;99.90;;;;;;5077654;28;20044;-78
2023/06/08 11:00:46;;;;;;;14.85;4.82;;;20.40;99.90;;;;;;5072662;28;20407;-79
2023/06/08 11:03:22;;;;;;;11.85;4.40;;;20.50;99.90;;;;;;5062386;28;20105;-77
2023/06/08 11:05:53;;;;;;;12.68;4.65;;;20.60;99.90;;;;;;5067229;28;20048;-77
2023/06/08 11:08:19;;;;;;;12.85;4.65;;;20.60;99.90;;;;;;5076187;28;20040;-78
2023/06/08 11:10:52;;;;;;;11.30;5.03;;;20.70;99.90;;;;;;5066043;28;20045;-77
2023/06/08 11:13:17;;;;;;;9.85;4.13;;;20.70;99.90;;;;;;5073106;28;20047;-78
2023/06/08 11:15:48;;;;;;;12.63;4.78;;;20.60;99.90;;;;;;5070130;28;20037;-78
2023/06/08 11:18:16;;;;;;;13.55;5.35;;;20.50;99.90;;;;;;5076208;28;20044;-77
2023/06/08 11:20:42;;;;;;;;;;;20.30;99.90;;;;;;5073474;28;20089;-77
2023/06/08 11:23:12;;;;;;;10.85;5.05;;;20.70;99.90;;;;;;5079370;28;20023;-79
2023/06/08 11:25:42;;;;;;;18.15;5.60;;;20.70;99.90;;;;;;5067669;28;20036;-78
2023/06/08 11:28:10;;;;;;;13.20;4.85;;;20.60;99.90;;;;;;5086950;28;20045;-79
2023/06/08 11:30:37;;;;;;;10.55;4.95;;;20.60;99.90;;;;;;5080680;28;20087;-80
2023/06/08 11:33:17;;;;;;;18.98;5.03;;;20.50;99.90;;;;;;5080074;28;20044;-78
2023/06/08 11:35:43;;;;;;;11.90;4.38;;;20.70;99.90;;;;;;5069188;28;20506;-78
2023/06/08 11:38:09;;;;;;;9.95;4.90;;;20.50;99.90;;;;;;5035111;28;20135;-78
2023/06/08 11:40:41;;;;;;;15.32;5.43;;;20.40;99.90;;;;;;5059937;28;20482;-78
2023/06/08 11:43:06;;;;;;;8.25;4.32;;;20.60;99.90;;;;;;5083189;28;20046;-79
2023/06/08 11:45:32;;;;;;;10.48;4.70;;;20.70;99.90;;;;;;5057821;28;20356;-76
2023/06/08 11:48:02;;;;;;;11.05;3.60;;;20.70;99.90;;;;;;5079477;28;20055;-77
2023/06/08 11:50:28;;;;;;;14.10;4.57;;;20.80;99.90;;;;;;5071160;28;20060;-77
2023/06/08 11:52:54;;;;;;;11.75;4.10;;;20.90;99.90;;;;;;5071060;28;20384;-76
2023/06/08 11:55:24;;;;;;;12.20;4.00;;;21.00;99.90;;;;;;5069241;28;20055;-76
2023/06/08 11:58:00;;;;;;;15.82;4.22;;;20.70;99.90;;;;;;5040608;28;20550;-77
2023/06/08 12:00:31;;;;;;;14.77;4.75;;;20.60;99.90;;;;;;5082213;28;20131;-76
2023/06/08 12:02:58;;;;;;;11.15;3.40;;;20.60;99.90;;;;;;5077539;28;20060;-77
2023/06/08 12:05:30;;;;;;;11.48;3.80;;;20.90;99.90;;;;;;5072917;28;20051;-78
2023/06/08 12:08:00;;;;;;;9.55;3.25;;;21.00;99.90;;;;;;5064236;28;20059;-77
2023/06/08 12:10:38;;;;;;;11.30;3.83;;;20.90;99.90;;;;;;5063755;28;20040;-79
2023/06/08 12:13:09;;;;;;;13.90;4.07;;;20.90;99.90;;;;;;5069188;28;20094;-77
2023/06/08 12:15:41;;;;;;;10.70;4.32;;;20.90;99.90;;;;;;5073156;28;20045;-77
2023/06/08 12:18:06;;;;;;;9.88;3.95;;;20.90;99.90;;;;;;5073213;28;20049;-77
2023/06/08 12:20:36;;;;;;;9.45;3.80;;;20.90;99.90;;;;;;5063949;28;20096;-77
2023/06/08 12:23:02;;;;;;;10.55;3.60;;;20.80;99.90;;;;;;5072529;28;20075;-76
2023/06/08 12:25:29;;;;;;;12.18;3.88;;;20.80;99.90;;;;;;5068661;28;20032;-77
2023/06/08 12:27:56;;;;;;;9.55;3.70;;;20.90;99.90;;;;;;5061680;28;20045;-77
2023/06/08 12:30:23;;;;;;;16.50;4.45;;;20.90;99.90;;;;;;5068719;28;20478;-76
2023/06/08 12:32:53;;;;;;;11.65;4.45;;;20.90;99.90;;;;;;5064431;28;20051;-78
2023/06/08 12:35:20;;;;;;;11.27;4.35;;;20.70;99.90;;;;;;5062390;28;20167;-78
2023/06/08 12:37:48;;;;;;;12.80;3.70;;;20.70;99.90;;;;;;5064570;28;20048;-77
2023/06/08 12:40:19;;;;;;;12.52;3.42;;;20.80;99.90;;;;;;5062013;28;20061;-78
2023/06/08 12:42:49;;;;;;;14.18;3.88;;;20.90;99.90;;;;;;5086280;28;20117;-79